createdAt,value
2023-02-15T00:01:08.564Z,69.83
2023-02-15T00:04:15.879Z,70.60
2023-02-15T00:07:21.854Z,71.50
2023-02-15T00:10:27.894Z,76.27
2023-02-15T00:13:36.636Z,72.50
2023-02-15T00:16:44.280Z,69.77
2023-02-15T00:19:50.425Z,69.40
2023-02-15T00:22:56.925Z,67.23
2023-02-15T00:26:07.381Z,64.87
2023-02-15T00:29:15.928Z,67.73
2023-02-15T00:32:21.676Z,61.27
2023-02-15T00:35:27.735Z,67.50
2023-02-15T00:38:34.156Z,65.13
2023-02-15T00:41:40.592Z,69.17
2023-02-15T00:44:48.139Z,64.93
2023-02-15T00:47:54.175Z,67.40
2023-02-15T00:51:02.394Z,67.27
2023-02-15T00:54:09.445Z,61.47
2023-02-15T00:57:15.960Z,66.30
2023-02-15T01:00:23.330Z,67.67
2023-02-15T01:03:29.453Z,66.47
2023-02-15T01:06:35.135Z,63.00
2023-02-15T01:09:41.363Z,66.33
2023-02-15T01:12:46.687Z,64.63
2023-02-15T01:15:57.434Z,64.00
2023-02-15T01:19:04.589Z,60.77
2023-02-15T01:22:10.579Z,63.83
2023-02-15T01:25:16.365Z,66.97
2023-02-15T01:28:22.522Z,65.20
2023-02-15T01:31:29.272Z,64.23
2023-02-15T01:34:35.334Z,64.07
2023-02-15T01:37:41.176Z,62.17
2023-02-15T01:40:47.396Z,62.37
2023-02-15T01:43:55.112Z,64.13
2023-02-15T01:47:02.251Z,61.67
2023-02-15T01:50:13.754Z,66.93
2023-02-15T01:53:26.248Z,69.00
2023-02-15T01:56:35.764Z,69.87
2023-02-15T01:59:45.111Z,73.40
2023-02-15T02:02:56.085Z,70.70
2023-02-15T02:06:02.395Z,66.63
2023-02-15T02:09:08.971Z,70.80
2023-02-15T02:12:15.197Z,69.20
2023-02-15T02:15:29.847Z,69.53
2023-02-15T02:18:49.076Z,65.63
2023-02-15T02:22:22.720Z,65.07
2023-02-15T02:25:56.985Z,63.67
2023-02-15T02:29:32.432Z,64.70
2023-02-15T02:33:14.893Z,61.87
2023-02-15T02:36:30.256Z,61.83
2023-02-15T02:39:42.458Z,65.40
2023-02-15T02:42:57.050Z,62.23
2023-02-15T02:46:12.437Z,57.90
2023-02-15T02:49:18.485Z,58.73
2023-02-15T02:52:44.057Z,59.03
2023-02-15T02:55:54.206Z,60.53
2023-02-15T02:59:03.896Z,62.07
2023-02-15T03:02:15.549Z,64.37
2023-02-15T03:05:26.394Z,59.63
2023-02-15T03:08:39.063Z,66.63
2023-02-15T03:11:46.887Z,70.63
2023-02-15T03:14:55.328Z,67.03
2023-02-15T03:18:04.880Z,63.63
2023-02-15T03:21:22.987Z,67.70
2023-02-15T03:24:34.248Z,65.83
2023-02-15T03:27:43.068Z,61.67
2023-02-15T03:30:54.340Z,63.07
2023-02-15T03:34:03.882Z,66.77
2023-02-15T03:37:15.573Z,62.67
2023-02-15T03:40:44.120Z,65.77
2023-02-15T03:43:55.720Z,64.70
2023-02-15T03:47:07.222Z,65.00
2023-02-15T03:50:32.102Z,64.47
2023-02-15T03:53:38.462Z,63.97
2023-02-15T03:57:06.283Z,62.17
2023-02-15T04:00:33.500Z,60.63
2023-02-15T04:03:43.786Z,64.23
2023-02-15T04:06:49.464Z,59.70
2023-02-15T04:10:12.837Z,65.53
2023-02-15T04:13:19.919Z,59.63
2023-02-15T04:16:25.553Z,58.50
2023-02-15T04:19:48.759Z,61.27
2023-02-15T04:23:12.374Z,60.03
2023-02-15T04:26:18.262Z,60.17
2023-02-15T04:29:27.068Z,59.37
2023-02-15T04:32:32.965Z,59.27
2023-02-15T04:35:38.945Z,61.00
2023-02-15T04:38:44.542Z,59.33
2023-02-15T04:41:50.194Z,60.10
2023-02-15T04:44:57.254Z,60.07
2023-02-15T04:48:03.295Z,59.30
2023-02-15T04:51:10.402Z,56.20
2023-02-15T04:54:16.178Z,58.30
2023-02-15T04:57:21.732Z,58.53
2023-02-15T05:00:29.853Z,57.53
2023-02-15T05:03:35.830Z,57.93
2023-02-15T05:06:41.910Z,57.73
2023-02-15T05:09:47.464Z,59.30
2023-02-15T05:12:53.258Z,60.67
2023-02-15T05:16:00.671Z,60.63
2023-02-15T05:19:06.810Z,60.27
2023-02-15T05:22:12.125Z,60.73
2023-02-15T05:25:35.539Z,59.27
2023-02-15T05:28:41.420Z,58.43
2023-02-15T05:31:49.377Z,58.63
2023-02-15T05:34:54.977Z,57.07
2023-02-15T05:38:00.841Z,57.10
2023-02-15T05:41:07.184Z,58.30
2023-02-15T05:44:14.092Z,58.00
2023-02-15T05:47:21.484Z,57.27
2023-02-15T05:50:28.799Z,57.30
2023-02-15T05:53:37.415Z,60.50
2023-02-15T05:56:43.322Z,55.83
2023-02-15T05:59:49.546Z,56.80
2023-02-15T06:02:57.238Z,57.17
2023-02-15T06:06:05.412Z,55.00
2023-02-15T06:09:15.802Z,56.67
2023-02-15T06:12:21.794Z,54.23
2023-02-15T06:15:28.253Z,55.70
2023-02-15T06:18:36.214Z,54.63
2023-02-15T06:21:42.338Z,55.03
2023-02-15T06:24:47.929Z,56.73
2023-02-15T06:27:53.843Z,55.73
2023-02-15T06:30:59.454Z,54.60
2023-02-15T06:34:07.000Z,53.23
2023-02-15T06:37:12.738Z,56.00
2023-02-15T06:40:18.628Z,53.77
2023-02-15T06:43:24.288Z,51.53
2023-02-15T06:46:31.105Z,54.40
2023-02-15T06:49:38.156Z,52.43
2023-02-15T06:52:43.828Z,53.17
2023-02-15T06:55:49.822Z,51.10
2023-02-15T06:58:55.846Z,53.03
2023-02-15T07:02:01.391Z,53.50
2023-02-15T07:05:09.005Z,51.90
2023-02-15T07:08:14.460Z,51.80
2023-02-15T07:11:37.776Z,52.03
2023-02-15T07:14:43.266Z,51.17
2023-02-15T07:17:49.610Z,52.97
2023-02-15T07:20:56.508Z,52.27
2023-02-15T07:24:02.108Z,50.43
2023-02-15T07:27:09.317Z,53.17
2023-02-15T07:30:17.927Z,52.93
2023-02-15T07:33:28.122Z,51.70
2023-02-15T07:36:34.989Z,51.03
2023-02-15T07:39:40.585Z,48.27
2023-02-15T07:42:46.196Z,50.00
2023-02-15T07:45:52.049Z,50.83
2023-02-15T07:48:57.639Z,48.90
2023-02-15T07:52:05.055Z,49.10
2023-02-15T07:55:13.989Z,48.67
2023-02-15T07:58:19.886Z,48.50
2023-02-15T08:01:30.142Z,48.70
2023-02-15T08:04:35.815Z,48.73
2023-02-15T08:07:43.014Z,47.90
2023-02-15T08:11:05.666Z,47.10
2023-02-15T08:14:13.428Z,47.67
2023-02-15T08:17:19.319Z,45.17
2023-02-15T08:20:25.625Z,45.03
2023-02-15T08:23:32.876Z,44.07
2023-02-15T08:26:41.972Z,42.93
2023-02-15T08:29:48.045Z,40.03
2023-02-15T08:32:54.055Z,40.43
2023-02-15T08:36:04.994Z,38.90
2023-02-15T08:39:13.020Z,37.77
2023-02-15T08:42:18.726Z,37.13
2023-02-15T08:45:26.529Z,37.00
2023-02-15T08:48:32.576Z,35.50
2023-02-15T08:51:40.816Z,37.23
2023-02-15T08:54:47.749Z,33.30
2023-02-15T08:57:56.811Z,33.47
2023-02-15T09:01:04.356Z,33.77
2023-02-15T09:04:11.364Z,32.00
2023-02-15T09:07:19.810Z,32.97
2023-02-15T09:10:27.927Z,32.73
2023-02-15T09:13:33.440Z,32.17
2023-02-15T09:16:40.476Z,31.63
2023-02-15T09:19:46.384Z,30.00
2023-02-15T09:22:56.985Z,29.37
2023-02-15T09:26:11.369Z,26.10
2023-02-15T09:29:18.570Z,26.53
2023-02-15T09:32:24.319Z,25.37
2023-02-15T09:35:30.804Z,26.13
2023-02-15T09:38:36.515Z,25.33
2023-02-15T09:42:22.050Z,25.10
2023-02-15T09:45:40.636Z,27.20
2023-02-15T09:48:51.502Z,25.80
2023-02-15T09:52:16.365Z,24.50
2023-02-15T09:55:37.957Z,24.57
2023-02-15T09:58:53.614Z,24.77
2023-02-15T10:02:13.000Z,24.17
2023-02-15T10:05:29.572Z,23.30
2023-02-15T10:08:51.985Z,23.67
2023-02-15T10:12:13.267Z,24.83
2023-02-15T10:15:42.587Z,24.53
2023-02-15T10:19:01.458Z,23.17
2023-02-15T10:22:23.422Z,23.87
2023-02-15T10:25:43.182Z,23.37
2023-02-15T10:28:51.761Z,24.97
2023-02-15T10:32:06.987Z,22.80
2023-02-15T10:35:22.589Z,23.97
2023-02-15T10:38:39.314Z,22.83
2023-02-15T10:41:54.270Z,23.77
2023-02-15T10:45:20.687Z,22.97
2023-02-15T10:48:40.289Z,23.80
2023-02-15T10:51:58.708Z,24.43
2023-02-15T10:55:11.722Z,24.70
2023-02-15T10:58:29.037Z,24.43
2023-02-15T11:01:38.237Z,24.50
2023-02-15T11:04:57.344Z,25.40
2023-02-15T11:08:08.553Z,25.60
2023-02-15T11:11:22.624Z,25.27
2023-02-15T11:14:40.107Z,26.57
2023-02-15T11:17:52.282Z,25.37
2023-02-15T11:21:04.470Z,26.47
2023-02-15T11:24:15.633Z,26.27
2023-02-15T11:27:23.931Z,27.43
2023-02-15T11:30:40.619Z,26.27
2023-02-15T11:33:50.330Z,26.90
2023-02-15T11:36:57.862Z,27.57
2023-02-15T11:40:23.626Z,26.70
2023-02-15T11:43:32.625Z,25.67
2023-02-15T11:46:39.551Z,26.47
2023-02-15T11:49:47.902Z,25.80
2023-02-15T11:52:59.000Z,27.27
2023-02-15T11:56:07.121Z,25.40
2023-02-15T11:59:18.357Z,27.07
2023-02-15T12:02:27.617Z,26.13
2023-02-15T12:05:35.845Z,26.57
2023-02-15T12:08:45.263Z,26.43
2023-02-15T12:11:52.549Z,28.53
2023-02-15T12:15:00.023Z,28.10
2023-02-15T12:18:07.030Z,27.37
2023-02-15T12:21:14.826Z,28.27
2023-02-15T12:24:23.600Z,27.80
2023-02-15T12:27:32.948Z,26.83
2023-02-15T12:30:40.066Z,27.30
2023-02-15T12:33:46.920Z,26.53
2023-02-15T12:36:58.933Z,27.63
2023-02-15T12:40:22.129Z,27.47
2023-02-15T12:43:34.405Z,28.10
2023-02-15T12:46:40.852Z,26.63
2023-02-15T12:50:54.823Z,26.80
2023-02-15T12:54:04.936Z,26.27
2023-02-15T12:57:36.678Z,27.57
2023-02-15T13:00:43.838Z,26.63
2023-02-15T13:04:02.402Z,26.83
2023-02-15T13:07:14.014Z,27.37
2023-02-15T13:10:29.927Z,25.97
2023-02-15T13:13:38.023Z,27.30
2023-02-15T13:16:47.633Z,28.10
2023-02-15T13:19:56.177Z,26.83
2023-02-15T13:23:06.560Z,25.77
2023-02-15T13:26:17.970Z,26.17
2023-02-15T13:29:26.977Z,26.97
2023-02-15T13:32:38.381Z,26.30
2023-02-15T13:35:52.067Z,26.87
2023-02-15T13:39:11.821Z,26.00
2023-02-15T13:42:23.640Z,25.47
2023-02-15T13:45:41.669Z,25.87
2023-02-15T13:49:01.121Z,25.20
2023-02-15T13:52:19.234Z,25.27
2023-02-15T13:55:48.126Z,26.37
2023-02-15T13:59:29.410Z,26.23
2023-02-15T14:03:05.108Z,27.33
2023-02-15T14:06:22.206Z,27.40
2023-02-15T14:09:42.685Z,26.97
2023-02-15T14:13:07.578Z,28.07
2023-02-15T14:16:22.498Z,27.10
2023-02-15T14:19:37.092Z,26.17
2023-02-15T14:22:47.971Z,27.10
2023-02-15T14:25:59.535Z,26.27
2023-02-15T14:29:16.682Z,25.70
2023-02-15T14:32:29.988Z,26.63
2023-02-15T14:35:36.877Z,27.40
2023-02-15T14:38:56.053Z,28.57
2023-02-15T14:42:05.869Z,27.80
2023-02-15T14:45:22.784Z,29.47
2023-02-15T14:48:33.352Z,27.50
2023-02-15T14:52:03.015Z,27.07
2023-02-15T14:55:11.377Z,26.80
2023-02-15T14:58:17.594Z,26.90
2023-02-15T15:01:28.811Z,28.30
2023-02-15T15:04:38.516Z,26.87
2023-02-15T15:07:47.891Z,26.57
2023-02-15T15:10:55.357Z,27.77
2023-02-15T15:14:02.592Z,28.23
2023-02-15T15:17:11.962Z,28.47
2023-02-15T15:20:46.544Z,26.93
2023-02-15T15:23:52.795Z,27.77
2023-02-15T15:27:32.295Z,27.20
2023-02-15T15:31:06.996Z,26.87
2023-02-15T15:34:41.642Z,25.97
2023-02-15T15:38:24.729Z,26.83
2023-02-15T15:41:43.891Z,26.87
2023-02-15T15:45:19.307Z,27.03
2023-02-15T15:48:39.189Z,27.30
2023-02-15T15:51:47.210Z,27.63
2023-02-15T15:54:57.048Z,27.17
2023-02-15T15:58:06.145Z,27.67
2023-02-15T16:01:14.764Z,27.10
2023-02-15T16:04:31.033Z,28.23
2023-02-15T16:07:36.580Z,28.17
2023-02-15T16:10:43.239Z,29.37
2023-02-15T16:13:53.178Z,28.30
2023-02-15T16:17:02.669Z,28.23
2023-02-15T16:20:19.792Z,27.77
2023-02-15T16:23:50.553Z,27.63
2023-02-15T16:27:18.104Z,26.60
2023-02-15T16:30:27.480Z,27.73
2023-02-15T16:33:38.657Z,28.63
2023-02-15T16:36:45.843Z,28.47
2023-02-15T16:39:52.336Z,29.07
2023-02-15T16:43:04.061Z,28.87
2023-02-15T16:46:14.775Z,30.03
2023-02-15T16:49:23.131Z,30.57
2023-02-15T16:52:31.558Z,32.27
2023-02-15T16:55:42.304Z,31.43
2023-02-15T16:58:52.011Z,31.60
2023-02-15T17:01:58.722Z,30.90
2023-02-15T17:05:18.753Z,32.30
2023-02-15T17:08:30.830Z,31.97
2023-02-15T17:11:38.631Z,33.33
2023-02-15T17:14:45.321Z,32.77
2023-02-15T17:17:51.013Z,33.07
2023-02-15T17:21:00.983Z,31.33
2023-02-15T17:24:17.666Z,33.27
2023-02-15T17:27:26.977Z,32.00
2023-02-15T17:30:35.124Z,34.10
2023-02-15T17:33:41.318Z,34.13
2023-02-15T17:36:59.898Z,35.37
2023-02-15T17:40:21.602Z,34.60
2023-02-15T17:43:28.657Z,34.50
2023-02-15T17:46:38.683Z,32.93
2023-02-15T17:49:45.016Z,33.77
2023-02-15T17:52:50.732Z,33.93
2023-02-15T17:55:58.167Z,33.10
2023-02-15T17:59:07.568Z,34.70
2023-02-15T18:02:31.411Z,34.80
2023-02-15T18:05:54.671Z,34.50
2023-02-15T18:09:18.489Z,34.37
2023-02-15T18:12:27.780Z,33.30
2023-02-15T18:15:33.934Z,35.23
2023-02-15T18:18:39.778Z,34.80
2023-02-15T18:21:47.149Z,34.90
2023-02-15T18:24:52.816Z,35.60
2023-02-15T18:28:00.284Z,34.53
2023-02-15T18:31:06.932Z,34.23
2023-02-15T18:34:26.500Z,34.57
2023-02-15T18:37:33.950Z,33.40
2023-02-15T18:40:39.747Z,33.20
2023-02-15T18:43:48.841Z,33.27
2023-02-15T18:46:54.303Z,34.97
2023-02-15T18:50:00.327Z,34.93
2023-02-15T18:53:07.963Z,34.67
2023-02-15T18:56:19.297Z,35.03
2023-02-15T18:59:28.408Z,34.50
2023-02-15T19:02:34.556Z,33.73
2023-02-15T19:05:41.961Z,34.00
2023-02-15T19:08:50.768Z,35.37
2023-02-15T19:11:57.925Z,34.83
2023-02-15T19:15:06.154Z,36.23
2023-02-15T19:18:12.611Z,38.10
2023-02-15T19:21:18.814Z,36.57
2023-02-15T19:24:31.145Z,37.20
2023-02-15T19:27:37.793Z,36.80
2023-02-15T19:30:45.659Z,37.87
2023-02-15T19:33:51.440Z,36.93
2023-02-15T19:36:58.001Z,36.80
2023-02-15T19:40:04.034Z,37.63
2023-02-15T19:43:17.709Z,35.67
2023-02-15T19:46:27.808Z,36.30
2023-02-15T19:49:34.947Z,36.63
2023-02-15T19:52:41.232Z,36.73
2023-02-15T19:55:48.878Z,35.97
2023-02-15T19:58:57.878Z,36.40
2023-02-15T20:02:06.444Z,36.27
2023-02-15T20:05:12.628Z,35.30
2023-02-15T20:08:20.086Z,37.40
2023-02-15T20:11:25.910Z,35.40
2023-02-15T20:14:32.134Z,36.70
2023-02-15T20:17:39.178Z,35.13
2023-02-15T20:20:47.923Z,34.37
2023-02-15T20:23:54.603Z,35.57
2023-02-15T20:27:00.895Z,36.13
2023-02-15T20:30:15.866Z,36.50
2023-02-15T20:33:23.630Z,37.10
2023-02-15T20:36:29.207Z,36.23
2023-02-15T20:39:37.578Z,36.63
2023-02-15T20:42:43.219Z,38.13
2023-02-15T20:45:49.873Z,36.13
2023-02-15T20:48:56.921Z,35.67
2023-02-15T20:52:04.667Z,36.53
2023-02-15T20:55:14.954Z,36.17
2023-02-15T20:58:23.113Z,35.43
2023-02-15T21:01:29.010Z,35.27
2023-02-15T21:04:36.495Z,35.27
2023-02-15T21:07:42.053Z,36.77
2023-02-15T21:10:50.421Z,35.67
2023-02-15T21:13:56.169Z,36.70
2023-02-15T21:17:01.935Z,36.77
2023-02-15T21:20:14.388Z,35.83
2023-02-15T21:23:24.991Z,36.20
2023-02-15T21:26:30.729Z,36.43
2023-02-15T21:29:36.849Z,36.13
2023-02-15T21:32:42.306Z,36.83
2023-02-15T21:35:52.191Z,36.73
2023-02-15T21:38:57.779Z,36.17
2023-02-15T21:42:21.005Z,35.77
2023-02-15T21:45:44.138Z,37.23
2023-02-15T21:48:50.138Z,37.03
2023-02-15T21:52:14.491Z,38.00
2023-02-15T21:55:20.117Z,36.63
2023-02-15T21:58:27.388Z,37.57
2023-02-15T22:01:33.131Z,38.27
2023-02-15T22:04:39.603Z,36.60
2023-02-15T22:07:46.825Z,37.70
2023-02-15T22:10:54.503Z,37.07
2023-02-15T22:14:00.434Z,37.40
2023-02-15T22:17:16.466Z,38.33
2023-02-15T22:20:23.817Z,39.87
2023-02-15T22:23:31.128Z,37.37
2023-02-15T22:26:36.856Z,37.37
2023-02-15T22:29:42.774Z,37.20
2023-02-15T22:32:48.728Z,37.13
2023-02-15T22:35:54.893Z,37.00
2023-02-15T22:39:02.358Z,37.97
2023-02-15T22:42:20.876Z,38.53
2023-02-15T22:45:28.489Z,39.27
2023-02-15T22:48:35.088Z,38.30
2023-02-15T22:51:41.316Z,39.30
2023-02-15T22:54:48.677Z,39.53
2023-02-15T22:57:57.066Z,38.47
2023-02-15T23:01:03.804Z,39.03
2023-02-15T23:04:16.282Z,37.47
2023-02-15T23:07:23.216Z,38.97
2023-02-15T23:10:31.970Z,38.27
2023-02-15T23:13:38.395Z,38.77
2023-02-15T23:16:44.272Z,37.87
2023-02-15T23:19:50.155Z,38.90
2023-02-15T23:22:56.025Z,40.43
2023-02-15T23:26:04.604Z,40.87
2023-02-15T23:29:15.379Z,41.37
2023-02-15T23:32:22.244Z,43.43
2023-02-15T23:35:28.495Z,40.37
2023-02-15T23:38:34.542Z,39.90
2023-02-15T23:41:40.420Z,42.40
2023-02-15T23:44:47.325Z,41.93
2023-02-15T23:48:10.867Z,41.40
2023-02-15T23:51:16.825Z,40.00
2023-02-15T23:54:25.999Z,43.00
2023-02-15T23:57:33.117Z,41.03
